sensor_id;sensor_type;location;lat;lon;timestamp;P1;durP1;ratioP1;P2;durP2;ratioP2
3789;SDS011;1910;49.042;9.028;2023-09-07T00:01:17;5.37;;;3.70;;
3789;SDS011;1910;49.042;9.028;2023-09-07T00:03:43;3.63;;;2.83;;
3789;SDS011;1910;49.042;9.028;2023-09-07T00:06:09;4.60;;;2.67;;
3789;SDS011;1910;49.042;9.028;2023-09-07T00:08:34;5.33;;;2.83;;
3789;SDS011;1910;49.042;9.028;2023-09-07T00:11:04;4.60;;;2.80;;
3789;SDS011;1910;49.042;9.028;2023-09-07T00:13:30;6.30;;;2.57;;
3789;SDS011;1910;49.042;9.028;2023-09-07T00:16:00;5.40;;;3.17;;
3789;SDS011;1910;49.042;9.028;2023-09-07T00:18:27;4.50;;;3.40;;
3789;SDS011;1910;49.042;9.028;2023-09-07T00:20:53;5.50;;;3.10;;
3789;SDS011;1910;49.042;9.028;2023-09-07T00:23:19;3.40;;;3.10;;
3789;SDS011;1910;49.042;9.028;2023-09-07T00:25:47;5.30;;;2.60;;
3789;SDS011;1910;49.042;9.028;2023-09-07T00:28:13;4.97;;;2.70;;
3789;SDS011;1910;49.042;9.028;2023-09-07T00:30:38;3.40;;;2.80;;
3789;SDS011;1910;49.042;9.028;2023-09-07T00:33:05;3.17;;;2.50;;
3789;SDS011;1910;49.042;9.028;2023-09-07T00:35:31;4.27;;;2.87;;
3789;SDS011;1910;49.042;9.028;2023-09-07T00:37:56;6.87;;;3.00;;
3789;SDS011;1910;49.042;9.028;2023-09-07T00:40:22;4.63;;;2.93;;
3789;SDS011;1910;49.042;9.028;2023-09-07T00:42:48;5.23;;;2.60;;
3789;SDS011;1910;49.042;9.028;2023-09-07T00:45:13;4.83;;;3.10;;
3789;SDS011;1910;49.042;9.028;2023-09-07T00:47:40;5.53;;;2.67;;
3789;SDS011;1910;49.042;9.028;2023-09-07T00:50:06;4.20;;;3.50;;
3789;SDS011;1910;49.042;9.028;2023-09-07T00:52:32;3.43;;;3.13;;
3789;SDS011;1910;49.042;9.028;2023-09-07T00:54:59;5.53;;;2.67;;
3789;SDS011;1910;49.042;9.028;2023-09-07T00:57:26;3.13;;;2.63;;
3789;SDS011;1910;49.042;9.028;2023-09-07T00:59:52;4.50;;;3.07;;
3789;SDS011;1910;49.042;9.028;2023-09-07T01:02:18;5.87;;;3.53;;
3789;SDS011;1910;49.042;9.028;2023-09-07T01:04:44;7.80;;;3.83;;
3789;SDS011;1910;49.042;9.028;2023-09-07T01:07:14;5.40;;;2.90;;
3789;SDS011;1910;49.042;9.028;2023-09-07T01:09:41;5.77;;;3.50;;
3789;SDS011;1910;49.042;9.028;2023-09-07T01:12:13;5.53;;;3.27;;
3789;SDS011;1910;49.042;9.028;2023-09-07T01:14:39;7.27;;;3.83;;
3789;SDS011;1910;49.042;9.028;2023-09-07T01:17:04;7.90;;;3.57;;
3789;SDS011;1910;49.042;9.028;2023-09-07T01:19:31;5.20;;;3.43;;
3789;SDS011;1910;49.042;9.028;2023-09-07T01:21:56;3.93;;;3.53;;
3789;SDS011;1910;49.042;9.028;2023-09-07T01:24:22;6.47;;;3.17;;
3789;SDS011;1910;49.042;9.028;2023-09-07T01:26:49;5.63;;;3.37;;
3789;SDS011;1910;49.042;9.028;2023-09-07T01:29:15;5.60;;;3.87;;
3789;SDS011;1910;49.042;9.028;2023-09-07T01:31:42;4.00;;;3.60;;
3789;SDS011;1910;49.042;9.028;2023-09-07T01:34:07;3.93;;;3.33;;
3789;SDS011;1910;49.042;9.028;2023-09-07T01:36:33;6.93;;;3.80;;
3789;SDS011;1910;49.042;9.028;2023-09-07T01:38:59;4.90;;;3.27;;
3789;SDS011;1910;49.042;9.028;2023-09-07T01:41:26;7.47;;;4.13;;
3789;SDS011;1910;49.042;9.028;2023-09-07T01:43:51;7.20;;;4.20;;
3789;SDS011;1910;49.042;9.028;2023-09-07T01:46:17;5.10;;;3.33;;
3789;SDS011;1910;49.042;9.028;2023-09-07T01:48:43;4.00;;;3.27;;
3789;SDS011;1910;49.042;9.028;2023-09-07T01:51:08;6.53;;;4.37;;
3789;SDS011;1910;49.042;9.028;2023-09-07T01:53:34;5.10;;;3.50;;
3789;SDS011;1910;49.042;9.028;2023-09-07T01:56:00;8.13;;;4.90;;
3789;SDS011;1910;49.042;9.028;2023-09-07T01:58:25;10.83;;;3.73;;
3789;SDS011;1910;49.042;9.028;2023-09-07T02:00:52;4.50;;;3.63;;
3789;SDS011;1910;49.042;9.028;2023-09-07T02:03:21;5.93;;;3.80;;
3789;SDS011;1910;49.042;9.028;2023-09-07T02:05:47;11.00;;;4.67;;
3789;SDS011;1910;49.042;9.028;2023-09-07T02:08:12;4.40;;;4.00;;
3789;SDS011;1910;49.042;9.028;2023-09-07T02:10:38;4.37;;;3.43;;
3789;SDS011;1910;49.042;9.028;2023-09-07T02:13:04;4.23;;;3.40;;
3789;SDS011;1910;49.042;9.028;2023-09-07T02:15:30;6.33;;;4.33;;
3789;SDS011;1910;49.042;9.028;2023-09-07T02:17:56;6.17;;;3.90;;
3789;SDS011;1910;49.042;9.028;2023-09-07T02:20:21;6.30;;;3.83;;
3789;SDS011;1910;49.042;9.028;2023-09-07T02:22:47;7.27;;;3.40;;
3789;SDS011;1910;49.042;9.028;2023-09-07T02:25:12;4.03;;;3.63;;
3789;SDS011;1910;49.042;9.028;2023-09-07T02:27:38;6.33;;;4.27;;
3789;SDS011;1910;49.042;9.028;2023-09-07T02:30:04;5.73;;;3.97;;
3789;SDS011;1910;49.042;9.028;2023-09-07T02:32:31;7.40;;;4.20;;
3789;SDS011;1910;49.042;9.028;2023-09-07T02:34:56;6.10;;;3.90;;
3789;SDS011;1910;49.042;9.028;2023-09-07T02:37:22;4.30;;;3.80;;
3789;SDS011;1910;49.042;9.028;2023-09-07T02:39:48;5.67;;;4.10;;
3789;SDS011;1910;49.042;9.028;2023-09-07T02:42:13;7.83;;;4.43;;
3789;SDS011;1910;49.042;9.028;2023-09-07T02:44:39;7.30;;;5.03;;
3789;SDS011;1910;49.042;9.028;2023-09-07T02:47:05;5.47;;;4.00;;
3789;SDS011;1910;49.042;9.028;2023-09-07T02:49:30;5.43;;;4.57;;
3789;SDS011;1910;49.042;9.028;2023-09-07T02:51:56;6.77;;;4.23;;
3789;SDS011;1910;49.042;9.028;2023-09-07T02:54:21;4.20;;;3.33;;
3789;SDS011;1910;49.042;9.028;2023-09-07T02:56:47;5.60;;;4.20;;
3789;SDS011;1910;49.042;9.028;2023-09-07T02:59:13;9.83;;;4.83;;
3789;SDS011;1910;49.042;9.028;2023-09-07T03:01:39;4.80;;;4.30;;
3789;SDS011;1910;49.042;9.028;2023-09-07T03:04:04;4.90;;;4.33;;
3789;SDS011;1910;49.042;9.028;2023-09-07T03:06:30;4.95;;;4.10;;
3789;SDS011;1910;49.042;9.028;2023-09-07T03:08:56;7.07;;;5.33;;
3789;SDS011;1910;49.042;9.028;2023-09-07T03:11:22;8.80;;;5.13;;
3789;SDS011;1910;49.042;9.028;2023-09-07T03:13:47;7.23;;;4.80;;
3789;SDS011;1910;49.042;9.028;2023-09-07T03:16:13;8.03;;;4.93;;
3789;SDS011;1910;49.042;9.028;2023-09-07T03:18:39;5.03;;;4.53;;
3789;SDS011;1910;49.042;9.028;2023-09-07T03:21:05;7.33;;;4.93;;
3789;SDS011;1910;49.042;9.028;2023-09-07T03:23:31;6.13;;;4.83;;
3789;SDS011;1910;49.042;9.028;2023-09-07T03:25:58;6.30;;;4.57;;
3789;SDS011;1910;49.042;9.028;2023-09-07T03:28:25;7.53;;;4.83;;
3789;SDS011;1910;49.042;9.028;2023-09-07T03:30:51;6.57;;;5.20;;
3789;SDS011;1910;49.042;9.028;2023-09-07T03:33:17;5.03;;;4.23;;
3789;SDS011;1910;49.042;9.028;2023-09-07T03:35:42;7.30;;;3.90;;
3789;SDS011;1910;49.042;9.028;2023-09-07T03:38:08;10.10;;;5.33;;
3789;SDS011;1910;49.042;9.028;2023-09-07T03:40:33;9.00;;;4.73;;
3789;SDS011;1910;49.042;9.028;2023-09-07T03:42:59;8.13;;;4.70;;
3789;SDS011;1910;49.042;9.028;2023-09-07T03:45:25;6.70;;;5.37;;
3789;SDS011;1910;49.042;9.028;2023-09-07T03:47:50;7.87;;;5.50;;
3789;SDS011;1910;49.042;9.028;2023-09-07T03:50:16;5.20;;;4.70;;
3789;SDS011;1910;49.042;9.028;2023-09-07T03:52:41;9.07;;;6.03;;
3789;SDS011;1910;49.042;9.028;2023-09-07T03:55:07;5.43;;;4.53;;
3789;SDS011;1910;49.042;9.028;2023-09-07T03:57:33;8.60;;;5.30;;
3789;SDS011;1910;49.042;9.028;2023-09-07T03:59:59;7.33;;;5.33;;
3789;SDS011;1910;49.042;9.028;2023-09-07T04:02:26;9.57;;;6.40;;
3789;SDS011;1910;49.042;9.028;2023-09-07T04:04:52;8.30;;;6.10;;
3789;SDS011;1910;49.042;9.028;2023-09-07T04:07:18;8.47;;;6.47;;
3789;SDS011;1910;49.042;9.028;2023-09-07T04:09:44;6.80;;;5.23;;
3789;SDS011;1910;49.042;9.028;2023-09-07T04:12:10;7.00;;;6.17;;
3789;SDS011;1910;49.042;9.028;2023-09-07T04:14:36;9.43;;;6.50;;
3789;SDS011;1910;49.042;9.028;2023-09-07T04:17:02;10.27;;;6.70;;
3789;SDS011;1910;49.042;9.028;2023-09-07T04:19:27;8.03;;;6.43;;
3789;SDS011;1910;49.042;9.028;2023-09-07T04:21:53;9.47;;;6.53;;
3789;SDS011;1910;49.042;9.028;2023-09-07T04:24:19;10.97;;;7.60;;
3789;SDS011;1910;49.042;9.028;2023-09-07T04:26:44;10.30;;;8.30;;
3789;SDS011;1910;49.042;9.028;2023-09-07T04:29:10;14.03;;;8.47;;
3789;SDS011;1910;49.042;9.028;2023-09-07T04:31:37;9.20;;;7.50;;
3789;SDS011;1910;49.042;9.028;2023-09-07T04:34:05;14.80;;;9.50;;
3789;SDS011;1910;49.042;9.028;2023-09-07T04:36:31;14.40;;;8.90;;
3789;SDS011;1910;49.042;9.028;2023-09-07T04:38:56;15.63;;;8.37;;
3789;SDS011;1910;49.042;9.028;2023-09-07T04:41:22;11.83;;;8.40;;
3789;SDS011;1910;49.042;9.028;2023-09-07T04:43:48;14.03;;;8.40;;
3789;SDS011;1910;49.042;9.028;2023-09-07T04:46:13;14.17;;;8.90;;
3789;SDS011;1910;49.042;9.028;2023-09-07T04:48:39;12.17;;;7.73;;
3789;SDS011;1910;49.042;9.028;2023-09-07T04:51:06;10.60;;;7.87;;
3789;SDS011;1910;49.042;9.028;2023-09-07T04:53:33;11.33;;;7.27;;
3789;SDS011;1910;49.042;9.028;2023-09-07T04:56:01;9.30;;;6.73;;
3789;SDS011;1910;49.042;9.028;2023-09-07T04:58:27;10.30;;;6.40;;
3789;SDS011;1910;49.042;9.028;2023-09-07T05:00:53;9.13;;;5.90;;
3789;SDS011;1910;49.042;9.028;2023-09-07T05:03:19;9.33;;;6.13;;
3789;SDS011;1910;49.042;9.028;2023-09-07T05:05:53;6.83;;;5.87;;
3789;SDS011;1910;49.042;9.028;2023-09-07T05:08:18;10.27;;;6.40;;
3789;SDS011;1910;49.042;9.028;2023-09-07T05:10:44;11.40;;;6.93;;
3789;SDS011;1910;49.042;9.028;2023-09-07T05:13:10;9.20;;;6.73;;
3789;SDS011;1910;49.042;9.028;2023-09-07T05:15:35;7.60;;;5.80;;
3789;SDS011;1910;49.042;9.028;2023-09-07T05:18:01;7.10;;;5.20;;
3789;SDS011;1910;49.042;9.028;2023-09-07T05:20:29;8.37;;;4.77;;
3789;SDS011;1910;49.042;9.028;2023-09-07T05:22:56;6.23;;;5.03;;
3789;SDS011;1910;49.042;9.028;2023-09-07T05:25:21;6.33;;;5.63;;
3789;SDS011;1910;49.042;9.028;2023-09-07T05:27:47;6.20;;;4.90;;
3789;SDS011;1910;49.042;9.028;2023-09-07T05:30:14;5.40;;;4.80;;
3789;SDS011;1910;49.042;9.028;2023-09-07T05:32:39;4.80;;;4.30;;
3789;SDS011;1910;49.042;9.028;2023-09-07T05:35:06;4.87;;;4.33;;
3789;SDS011;1910;49.042;9.028;2023-09-07T05:37:32;6.20;;;4.13;;
3789;SDS011;1910;49.042;9.028;2023-09-07T05:39:58;4.20;;;3.63;;
3789;SDS011;1910;49.042;9.028;2023-09-07T05:42:23;5.53;;;4.80;;
3789;SDS011;1910;49.042;9.028;2023-09-07T05:44:50;6.53;;;4.30;;
3789;SDS011;1910;49.042;9.028;2023-09-07T05:47:16;5.53;;;4.40;;
3789;SDS011;1910;49.042;9.028;2023-09-07T05:49:42;9.30;;;4.10;;
3789;SDS011;1910;49.042;9.028;2023-09-07T05:52:08;6.17;;;4.50;;
3789;SDS011;1910;49.042;9.028;2023-09-07T05:54:33;6.10;;;4.53;;
3789;SDS011;1910;49.042;9.028;2023-09-07T05:56:59;4.63;;;4.13;;
3789;SDS011;1910;49.042;9.028;2023-09-07T05:59:24;6.27;;;4.73;;
3789;SDS011;1910;49.042;9.028;2023-09-07T06:01:50;5.97;;;4.87;;
3789;SDS011;1910;49.042;9.028;2023-09-07T06:04:15;11.53;;;4.50;;
3789;SDS011;1910;49.042;9.028;2023-09-07T06:06:41;5.47;;;4.67;;
3789;SDS011;1910;49.042;9.028;2023-09-07T06:09:06;7.10;;;4.60;;
3789;SDS011;1910;49.042;9.028;2023-09-07T06:11:32;5.87;;;5.00;;
3789;SDS011;1910;49.042;9.028;2023-09-07T06:13:58;6.33;;;4.23;;
3789;SDS011;1910;49.042;9.028;2023-09-07T06:16:23;7.60;;;4.50;;
3789;SDS011;1910;49.042;9.028;2023-09-07T06:18:49;5.37;;;4.87;;
3789;SDS011;1910;49.042;9.028;2023-09-07T06:21:14;4.77;;;4.37;;
3789;SDS011;1910;49.042;9.028;2023-09-07T06:23:40;7.50;;;4.67;;
3789;SDS011;1910;49.042;9.028;2023-09-07T06:26:05;6.57;;;5.23;;
3789;SDS011;1910;49.042;9.028;2023-09-07T06:28:31;7.10;;;5.13;;
3789;SDS011;1910;49.042;9.028;2023-09-07T06:30:57;5.40;;;4.90;;
3789;SDS011;1910;49.042;9.028;2023-09-07T06:33:22;6.60;;;5.87;;
3789;SDS011;1910;49.042;9.028;2023-09-07T06:35:47;4.83;;;4.43;;
3789;SDS011;1910;49.042;9.028;2023-09-07T06:38:13;8.20;;;5.23;;
3789;SDS011;1910;49.042;9.028;2023-09-07T06:40:39;6.10;;;4.50;;
3789;SDS011;1910;49.042;9.028;2023-09-07T06:43:04;11.30;;;4.93;;
3789;SDS011;1910;49.042;9.028;2023-09-07T06:45:39;8.33;;;5.17;;
3789;SDS011;1910;49.042;9.028;2023-09-07T06:48:05;5.20;;;4.70;;
3789;SDS011;1910;49.042;9.028;2023-09-07T06:50:30;4.80;;;4.37;;
3789;SDS011;1910;49.042;9.028;2023-09-07T06:52:56;6.00;;;4.77;;
3789;SDS011;1910;49.042;9.028;2023-09-07T06:55:21;11.30;;;5.27;;
3789;SDS011;1910;49.042;9.028;2023-09-07T06:57:47;4.87;;;4.37;;
3789;SDS011;1910;49.042;9.028;2023-09-07T07:00:12;4.90;;;4.43;;
3789;SDS011;1910;49.042;9.028;2023-09-07T07:02:38;5.80;;;5.30;;
3789;SDS011;1910;49.042;9.028;2023-09-07T07:05:04;5.20;;;4.70;;
3789;SDS011;1910;49.042;9.028;2023-09-07T07:07:30;5.50;;;4.70;;
3789;SDS011;1910;49.042;9.028;2023-09-07T07:09:56;10.97;;;4.97;;
3789;SDS011;1910;49.042;9.028;2023-09-07T07:12:22;5.70;;;4.53;;
3789;SDS011;1910;49.042;9.028;2023-09-07T07:14:48;5.67;;;5.07;;
3789;SDS011;1910;49.042;9.028;2023-09-07T07:17:13;8.03;;;4.90;;
3789;SDS011;1910;49.042;9.028;2023-09-07T07:19:39;7.53;;;6.57;;
3789;SDS011;1910;49.042;9.028;2023-09-07T07:22:05;5.30;;;4.90;;
3789;SDS011;1910;49.042;9.028;2023-09-07T07:24:30;10.00;;;5.60;;
3789;SDS011;1910;49.042;9.028;2023-09-07T07:26:56;7.20;;;4.80;;
3789;SDS011;1910;49.042;9.028;2023-09-07T07:29:21;8.63;;;5.70;;
3789;SDS011;1910;49.042;9.028;2023-09-07T07:31:47;7.57;;;6.13;;
3789;SDS011;1910;49.042;9.028;2023-09-07T07:34:12;25.80;;;7.40;;
3789;SDS011;1910;49.042;9.028;2023-09-07T07:36:38;6.40;;;5.20;;
3789;SDS011;1910;49.042;9.028;2023-09-07T07:39:04;8.40;;;5.60;;
3789;SDS011;1910;49.042;9.028;2023-09-07T07:41:32;6.93;;;5.50;;
3789;SDS011;1910;49.042;9.028;2023-09-07T07:43:57;7.13;;;5.97;;
3789;SDS011;1910;49.042;9.028;2023-09-07T07:46:23;8.07;;;5.43;;
3789;SDS011;1910;49.042;9.028;2023-09-07T07:48:48;9.00;;;5.53;;
3789;SDS011;1910;49.042;9.028;2023-09-07T07:51:14;7.83;;;5.00;;
3789;SDS011;1910;49.042;9.028;2023-09-07T07:53:40;6.30;;;5.00;;
3789;SDS011;1910;49.042;9.028;2023-09-07T07:56:05;5.90;;;5.20;;
3789;SDS011;1910;49.042;9.028;2023-09-07T07:58:39;6.30;;;5.43;;
3789;SDS011;1910;49.042;9.028;2023-09-07T08:01:12;7.53;;;5.37;;
3789;SDS011;1910;49.042;9.028;2023-09-07T08:03:42;7.47;;;5.40;;
3789;SDS011;1910;49.042;9.028;2023-09-07T08:06:08;11.23;;;6.40;;
3789;SDS011;1910;49.042;9.028;2023-09-07T08:08:34;12.00;;;5.70;;
3789;SDS011;1910;49.042;9.028;2023-09-07T08:10:59;6.13;;;5.43;;
3789;SDS011;1910;49.042;9.028;2023-09-07T08:13:29;9.10;;;6.50;;
3789;SDS011;1910;49.042;9.028;2023-09-07T08:15:55;7.43;;;5.40;;
3789;SDS011;1910;49.042;9.028;2023-09-07T08:18:20;5.63;;;5.00;;
3789;SDS011;1910;49.042;9.028;2023-09-07T08:20:46;8.23;;;5.50;;
3789;SDS011;1910;49.042;9.028;2023-09-07T08:23:11;7.47;;;5.87;;
3789;SDS011;1910;49.042;9.028;2023-09-07T08:25:37;6.20;;;5.60;;
3789;SDS011;1910;49.042;9.028;2023-09-07T08:28:04;7.77;;;5.50;;
3789;SDS011;1910;49.042;9.028;2023-09-07T08:30:30;6.17;;;5.60;;
3789;SDS011;1910;49.042;9.028;2023-09-07T08:32:58;9.40;;;6.17;;
3789;SDS011;1910;49.042;9.028;2023-09-07T08:35:23;6.20;;;5.50;;
3789;SDS011;1910;49.042;9.028;2023-09-07T08:37:53;10.27;;;5.70;;
3789;SDS011;1910;49.042;9.028;2023-09-07T08:40:19;5.70;;;5.10;;
3789;SDS011;1910;49.042;9.028;2023-09-07T08:42:46;7.20;;;5.80;;
3789;SDS011;1910;49.042;9.028;2023-09-07T08:45:13;8.17;;;5.70;;
3789;SDS011;1910;49.042;9.028;2023-09-07T08:47:45;8.87;;;5.20;;
3789;SDS011;1910;49.042;9.028;2023-09-07T08:50:11;8.67;;;5.87;;
3789;SDS011;1910;49.042;9.028;2023-09-07T08:52:38;6.83;;;6.23;;
3789;SDS011;1910;49.042;9.028;2023-09-07T08:55:03;6.43;;;5.87;;
3789;SDS011;1910;49.042;9.028;2023-09-07T08:57:30;7.63;;;6.07;;
3789;SDS011;1910;49.042;9.028;2023-09-07T08:59:56;8.13;;;5.30;;
3789;SDS011;1910;49.042;9.028;2023-09-07T09:02:22;8.77;;;6.00;;
3789;SDS011;1910;49.042;9.028;2023-09-07T09:04:48;7.13;;;5.63;;
3789;SDS011;1910;49.042;9.028;2023-09-07T09:07:14;7.60;;;6.20;;
3789;SDS011;1910;49.042;9.028;2023-09-07T09:09:40;7.00;;;6.30;;
3789;SDS011;1910;49.042;9.028;2023-09-07T09:12:11;9.90;;;5.93;;
3789;SDS011;1910;49.042;9.028;2023-09-07T09:14:39;8.10;;;6.93;;
3789;SDS011;1910;49.042;9.028;2023-09-07T09:17:10;7.93;;;5.90;;
3789;SDS011;1910;49.042;9.028;2023-09-07T09:19:37;7.43;;;5.90;;
3789;SDS011;1910;49.042;9.028;2023-09-07T09:22:03;6.60;;;6.00;;
3789;SDS011;1910;49.042;9.028;2023-09-07T09:24:31;6.67;;;6.07;;
3789;SDS011;1910;49.042;9.028;2023-09-07T09:26:59;6.27;;;5.60;;
3789;SDS011;1910;49.042;9.028;2023-09-07T09:29:24;11.63;;;6.10;;
3789;SDS011;1910;49.042;9.028;2023-09-07T09:31:50;7.73;;;7.03;;
3789;SDS011;1910;49.042;9.028;2023-09-07T09:34:18;7.53;;;6.77;;
3789;SDS011;1910;49.042;9.028;2023-09-07T09:36:44;8.30;;;6.10;;
3789;SDS011;1910;49.042;9.028;2023-09-07T09:39:10;6.13;;;5.63;;
3789;SDS011;1910;49.042;9.028;2023-09-07T09:41:46;11.30;;;6.93;;
3789;SDS011;1910;49.042;9.028;2023-09-07T09:44:11;6.97;;;6.10;;
3789;SDS011;1910;49.042;9.028;2023-09-07T09:46:38;17.90;;;7.20;;
3789;SDS011;1910;49.042;9.028;2023-09-07T09:49:05;7.00;;;6.30;;
3789;SDS011;1910;49.042;9.028;2023-09-07T09:51:36;7.43;;;6.40;;
3789;SDS011;1910;49.042;9.028;2023-09-07T09:54:03;7.30;;;6.20;;
3789;SDS011;1910;49.042;9.028;2023-09-07T09:56:31;7.87;;;6.00;;
3789;SDS011;1910;49.042;9.028;2023-09-07T09:58:56;7.00;;;6.20;;
3789;SDS011;1910;49.042;9.028;2023-09-07T10:01:22;6.80;;;5.90;;
3789;SDS011;1910;49.042;9.028;2023-09-07T10:03:48;6.87;;;6.00;;
3789;SDS011;1910;49.042;9.028;2023-09-07T10:06:19;5.83;;;4.97;;
3789;SDS011;1910;49.042;9.028;2023-09-07T10:11:32;6.27;;;5.77;;
3789;SDS011;1910;49.042;9.028;2023-09-07T10:14:00;8.07;;;6.50;;
3789;SDS011;1910;49.042;9.028;2023-09-07T10:16:28;6.70;;;6.00;;
3789;SDS011;1910;49.042;9.028;2023-09-07T10:18:54;7.83;;;6.37;;
3789;SDS011;1910;49.042;9.028;2023-09-07T10:21:20;9.40;;;5.40;;
3789;SDS011;1910;49.042;9.028;2023-09-07T10:23:49;8.67;;;6.50;;
3789;SDS011;1910;49.042;9.028;2023-09-07T10:26:18;7.23;;;5.73;;
3789;SDS011;1910;49.042;9.028;2023-09-07T10:28:47;6.47;;;5.87;;
3789;SDS011;1910;49.042;9.028;2023-09-07T10:31:25;6.80;;;5.93;;
3789;SDS011;1910;49.042;9.028;2023-09-07T10:33:51;6.53;;;5.83;;
3789;SDS011;1910;49.042;9.028;2023-09-07T10:36:24;9.30;;;5.80;;
3789;SDS011;1910;49.042;9.028;2023-09-07T10:38:51;6.90;;;6.20;;
3789;SDS011;1910;49.042;9.028;2023-09-07T10:41:20;7.50;;;6.50;;
3789;SDS011;1910;49.042;9.028;2023-09-07T10:43:47;7.20;;;5.83;;
3789;SDS011;1910;49.042;9.028;2023-09-07T10:46:19;7.10;;;5.60;;
3789;SDS011;1910;49.042;9.028;2023-09-07T10:48:49;6.40;;;5.77;;
3789;SDS011;1910;49.042;9.028;2023-09-07T10:51:16;11.97;;;5.93;;
3789;SDS011;1910;49.042;9.028;2023-09-07T10:53:42;7.40;;;6.23;;
3789;SDS011;1910;49.042;9.028;2023-09-07T10:56:08;7.67;;;5.63;;
3789;SDS011;1910;49.042;9.028;2023-09-07T10:58:34;10.30;;;6.00;;
3789;SDS011;1910;49.042;9.028;2023-09-07T11:01:03;8.60;;;5.80;;
3789;SDS011;1910;49.042;9.028;2023-09-07T11:03:31;7.93;;;6.00;;
3789;SDS011;1910;49.042;9.028;2023-09-07T11:06:01;6.10;;;4.80;;
3789;SDS011;1910;49.042;9.028;2023-09-07T11:08:28;9.00;;;6.57;;
3789;SDS011;1910;49.042;9.028;2023-09-07T11:10:54;8.73;;;5.37;;
3789;SDS011;1910;49.042;9.028;2023-09-07T11:13:21;5.90;;;5.40;;
3789;SDS011;1910;49.042;9.028;2023-09-07T11:15:52;9.70;;;5.40;;
3789;SDS011;1910;49.042;9.028;2023-09-07T11:18:20;5.83;;;5.37;;
3789;SDS011;1910;49.042;9.028;2023-09-07T11:20:46;8.20;;;6.70;;
3789;SDS011;1910;49.042;9.028;2023-09-07T11:23:13;6.40;;;5.80;;
3789;SDS011;1910;49.042;9.028;2023-09-07T11:25:39;22.07;;;5.97;;
3789;SDS011;1910;49.042;9.028;2023-09-07T11:28:05;7.97;;;6.40;;
3789;SDS011;1910;49.042;9.028;2023-09-07T11:30:32;5.97;;;5.33;;
3789;SDS011;1910;49.042;9.028;2023-09-07T11:33:05;7.13;;;5.60;;
3789;SDS011;1910;49.042;9.028;2023-09-07T11:35:35;6.03;;;5.27;;
3789;SDS011;1910;49.042;9.028;2023-09-07T11:38:02;6.13;;;5.53;;
3789;SDS011;1910;49.042;9.028;2023-09-07T11:40:30;6.77;;;5.67;;
3789;SDS011;1910;49.042;9.028;2023-09-07T11:42:56;6.70;;;5.60;;
3789;SDS011;1910;49.042;9.028;2023-09-07T11:45:21;6.03;;;5.50;;
3789;SDS011;1910;49.042;9.028;2023-09-07T11:47:47;7.80;;;5.70;;
3789;SDS011;1910;49.042;9.028;2023-09-07T11:50:13;8.73;;;5.97;;
3789;SDS011;1910;49.042;9.028;2023-09-07T11:52:38;7.33;;;6.07;;
3789;SDS011;1910;49.042;9.028;2023-09-07T11:55:04;10.40;;;5.53;;
3789;SDS011;1910;49.042;9.028;2023-09-07T11:57:30;6.10;;;5.50;;
3789;SDS011;1910;49.042;9.028;2023-09-07T11:59:56;6.80;;;4.80;;
3789;SDS011;1910;49.042;9.028;2023-09-07T12:02:21;5.93;;;5.33;;
3789;SDS011;1910;49.042;9.028;2023-09-07T12:04:47;8.20;;;5.77;;
3789;SDS011;1910;49.042;9.028;2023-09-07T12:07:13;9.60;;;4.90;;
3789;SDS011;1910;49.042;9.028;2023-09-07T12:09:39;6.13;;;5.53;;
3789;SDS011;1910;49.042;9.028;2023-09-07T12:12:05;6.03;;;4.80;;
3789;SDS011;1910;49.042;9.028;2023-09-07T12:14:31;7.03;;;5.43;;
3789;SDS011;1910;49.042;9.028;2023-09-07T12:16:56;9.33;;;5.20;;
3789;SDS011;1910;49.042;9.028;2023-09-07T12:19:22;6.80;;;6.20;;
3789;SDS011;1910;49.042;9.028;2023-09-07T12:21:48;5.70;;;5.10;;
3789;SDS011;1910;49.042;9.028;2023-09-07T12:24:13;7.20;;;5.50;;
3789;SDS011;1910;49.042;9.028;2023-09-07T12:26:39;5.43;;;4.93;;
3789;SDS011;1910;49.042;9.028;2023-09-07T12:29:04;7.60;;;4.80;;
3789;SDS011;1910;49.042;9.028;2023-09-07T12:31:31;7.47;;;5.70;;
3789;SDS011;1910;49.042;9.028;2023-09-07T12:33:57;7.93;;;5.93;;
3789;SDS011;1910;49.042;9.028;2023-09-07T12:36:25;8.50;;;5.43;;
3789;SDS011;1910;49.042;9.028;2023-09-07T12:38:54;6.77;;;4.63;;
3789;SDS011;1910;49.042;9.028;2023-09-07T12:41:22;10.50;;;4.80;;
3789;SDS011;1910;49.042;9.028;2023-09-07T12:43:48;7.93;;;5.37;;
3789;SDS011;1910;49.042;9.028;2023-09-07T12:46:13;6.57;;;5.90;;
3789;SDS011;1910;49.042;9.028;2023-09-07T12:48:39;5.57;;;4.97;;
3789;SDS011;1910;49.042;9.028;2023-09-07T12:51:05;5.40;;;4.90;;
3789;SDS011;1910;49.042;9.028;2023-09-07T12:53:33;5.50;;;4.90;;
3789;SDS011;1910;49.042;9.028;2023-09-07T12:55:59;5.43;;;4.87;;
3789;SDS011;1910;49.042;9.028;2023-09-07T12:58:26;7.23;;;4.83;;
3789;SDS011;1910;49.042;9.028;2023-09-07T13:00:52;5.77;;;5.27;;
3789;SDS011;1910;49.042;9.028;2023-09-07T13:03:17;4.63;;;4.23;;
3789;SDS011;1910;49.042;9.028;2023-09-07T13:05:44;6.83;;;4.70;;
3789;SDS011;1910;49.042;9.028;2023-09-07T13:08:10;9.30;;;5.90;;
3789;SDS011;1910;49.042;9.028;2023-09-07T13:10:35;5.37;;;4.60;;
3789;SDS011;1910;49.042;9.028;2023-09-07T13:13:01;5.40;;;4.90;;
3789;SDS011;1910;49.042;9.028;2023-09-07T13:15:28;5.60;;;5.10;;
3789;SDS011;1910;49.042;9.028;2023-09-07T13:17:53;5.70;;;5.20;;
3789;SDS011;1910;49.042;9.028;2023-09-07T13:20:19;5.53;;;4.90;;
3789;SDS011;1910;49.042;9.028;2023-09-07T13:22:45;8.13;;;5.03;;
3789;SDS011;1910;49.042;9.028;2023-09-07T13:25:11;5.40;;;4.90;;
3789;SDS011;1910;49.042;9.028;2023-09-07T13:27:37;5.20;;;4.70;;
3789;SDS011;1910;49.042;9.028;2023-09-07T13:30:03;6.67;;;4.77;;
3789;SDS011;1910;49.042;9.028;2023-09-07T13:32:30;5.13;;;4.63;;
3789;SDS011;1910;49.042;9.028;2023-09-07T13:34:57;5.40;;;4.83;;
3789;SDS011;1910;49.042;9.028;2023-09-07T13:37:23;5.13;;;4.63;;
3789;SDS011;1910;49.042;9.028;2023-09-07T13:39:48;5.53;;;5.03;;
3789;SDS011;1910;49.042;9.028;2023-09-07T13:42:14;6.57;;;4.77;;
3789;SDS011;1910;49.042;9.028;2023-09-07T13:44:41;5.37;;;4.73;;
3789;SDS011;1910;49.042;9.028;2023-09-07T13:47:06;5.33;;;4.40;;
3789;SDS011;1910;49.042;9.028;2023-09-07T13:49:33;7.40;;;5.20;;
3789;SDS011;1910;49.042;9.028;2023-09-07T13:51:59;5.27;;;4.77;;
3789;SDS011;1910;49.042;9.028;2023-09-07T13:54:25;7.83;;;5.40;;
3789;SDS011;1910;49.042;9.028;2023-09-07T13:56:50;5.37;;;4.87;;
3789;SDS011;1910;49.042;9.028;2023-09-07T13:59:16;5.90;;;5.03;;
3789;SDS011;1910;49.042;9.028;2023-09-07T14:01:41;6.83;;;4.97;;
3789;SDS011;1910;49.042;9.028;2023-09-07T14:04:07;5.93;;;4.67;;
3789;SDS011;1910;49.042;9.028;2023-09-07T14:06:32;6.27;;;5.67;;
3789;SDS011;1910;49.042;9.028;2023-09-07T14:08:58;5.90;;;5.40;;
3789;SDS011;1910;49.042;9.028;2023-09-07T14:11:24;6.27;;;5.10;;
3789;SDS011;1910;49.042;9.028;2023-09-07T14:13:49;5.97;;;4.97;;
3789;SDS011;1910;49.042;9.028;2023-09-07T14:16:19;6.50;;;4.87;;
3789;SDS011;1910;49.042;9.028;2023-09-07T14:18:46;7.03;;;4.80;;
3789;SDS011;1910;49.042;9.028;2023-09-07T14:21:16;7.53;;;4.57;;
3789;SDS011;1910;49.042;9.028;2023-09-07T14:23:42;6.10;;;4.10;;
3789;SDS011;1910;49.042;9.028;2023-09-07T14:26:08;6.43;;;5.03;;
3789;SDS011;1910;49.042;9.028;2023-09-07T14:28:34;6.77;;;5.20;;
3789;SDS011;1910;49.042;9.028;2023-09-07T14:31:00;7.37;;;5.37;;
3789;SDS011;1910;49.042;9.028;2023-09-07T14:33:29;5.80;;;5.10;;
3789;SDS011;1910;49.042;9.028;2023-09-07T14:35:54;6.90;;;5.30;;
3789;SDS011;1910;49.042;9.028;2023-09-07T14:38:20;5.10;;;4.60;;
3789;SDS011;1910;49.042;9.028;2023-09-07T14:40:46;6.93;;;5.07;;
3789;SDS011;1910;49.042;9.028;2023-09-07T14:43:14;5.10;;;4.47;;
3789;SDS011;1910;49.042;9.028;2023-09-07T14:45:39;5.97;;;4.60;;
3789;SDS011;1910;49.042;9.028;2023-09-07T14:48:05;6.37;;;4.83;;
3789;SDS011;1910;49.042;9.028;2023-09-07T14:50:31;5.57;;;4.80;;
3789;SDS011;1910;49.042;9.028;2023-09-07T14:52:56;7.90;;;4.97;;
3789;SDS011;1910;49.042;9.028;2023-09-07T14:55:22;5.03;;;4.53;;
3789;SDS011;1910;49.042;9.028;2023-09-07T14:57:48;5.57;;;5.07;;
3789;SDS011;1910;49.042;9.028;2023-09-07T15:00:13;5.37;;;4.83;;
3789;SDS011;1910;49.042;9.028;2023-09-07T15:02:39;4.83;;;4.27;;
3789;SDS011;1910;49.042;9.028;2023-09-07T15:05:05;7.63;;;5.47;;
3789;SDS011;1910;49.042;9.028;2023-09-07T15:07:30;5.20;;;4.20;;
3789;SDS011;1910;49.042;9.028;2023-09-07T15:09:56;7.47;;;5.07;;
3789;SDS011;1910;49.042;9.028;2023-09-07T15:12:21;6.60;;;5.07;;